createdAt,value
2023-04-08T00:00:48.220Z,68.95
2023-04-08T00:03:16.731Z,69.70
2023-04-08T00:05:46.372Z,69.41
2023-04-08T00:08:14.610Z,69.27
2023-04-08T00:10:42.870Z,69.12
2023-04-08T00:13:11.249Z,69.83
2023-04-08T00:15:39.352Z,68.84
2023-04-08T00:18:08.569Z,69.50
2023-04-08T00:20:36.696Z,69.01
2023-04-08T00:23:06.269Z,68.92
2023-04-08T00:25:34.430Z,69.19
2023-04-08T00:28:02.522Z,68.77
2023-04-08T00:30:32.107Z,68.82
2023-04-08T00:33:00.310Z,69.05
2023-04-08T00:35:28.620Z,69.33
2023-04-08T00:37:56.830Z,69.10
2023-04-08T00:40:26.350Z,69.12
2023-04-08T00:42:54.881Z,68.83
2023-04-08T00:45:23.303Z,69.25
2023-04-08T00:47:52.692Z,69.08
2023-04-08T00:50:21.430Z,69.33
2023-04-08T00:52:49.748Z,68.49
2023-04-08T00:55:17.837Z,68.82
2023-04-08T00:57:47.650Z,68.97
2023-04-08T01:00:17.435Z,68.80
2023-04-08T01:02:54.115Z,68.72
2023-04-08T01:05:32.703Z,68.33
2023-04-08T01:08:03.031Z,68.31
2023-04-08T01:10:35.468Z,68.66
2023-04-08T01:13:10.163Z,68.58
2023-04-08T01:15:41.279Z,68.30
2023-04-08T01:18:14.447Z,68.59
2023-04-08T01:20:43.803Z,69.00
2023-04-08T01:23:24.107Z,68.50
2023-04-08T01:25:54.678Z,69.01
2023-04-08T01:28:28.023Z,68.87
2023-04-08T01:30:58.729Z,68.73
2023-04-08T01:33:29.849Z,69.08
2023-04-08T01:36:00.079Z,68.89
2023-04-08T01:38:29.178Z,68.84
2023-04-08T01:40:58.908Z,68.72
2023-04-08T01:43:28.114Z,69.47
2023-04-08T01:45:58.374Z,68.73
2023-04-08T01:48:27.481Z,69.39
2023-04-08T01:50:56.723Z,69.52
2023-04-08T01:53:25.422Z,68.82
2023-04-08T01:56:02.631Z,68.95
2023-04-08T01:58:37.446Z,68.90
2023-04-08T02:01:07.430Z,68.52
2023-04-08T02:03:36.818Z,68.55
2023-04-08T02:06:05.444Z,69.09
2023-04-08T02:08:36.604Z,68.90
2023-04-08T02:11:06.219Z,68.47
2023-04-08T02:13:34.819Z,68.36
2023-04-08T02:16:10.597Z,68.42
2023-04-08T02:18:43.565Z,68.41
2023-04-08T02:21:16.934Z,68.25
2023-04-08T02:23:51.274Z,68.42
2023-04-08T02:26:22.985Z,68.15
2023-04-08T02:28:52.075Z,67.84
2023-04-08T02:31:24.793Z,67.59
2023-04-08T02:33:53.710Z,67.88
2023-04-08T02:36:23.198Z,67.89
2023-04-08T02:38:52.402Z,67.62
2023-04-08T02:41:22.123Z,67.42
2023-04-08T02:43:55.434Z,67.08
2023-04-08T02:46:23.625Z,67.88
2023-04-08T02:48:52.347Z,67.96
2023-04-08T02:51:20.541Z,68.04
2023-04-08T02:53:48.700Z,68.29
2023-04-08T02:56:16.743Z,67.75
2023-04-08T02:58:46.557Z,68.01
2023-04-08T03:01:14.697Z,68.26
2023-04-08T03:03:42.920Z,68.54
2023-04-08T03:06:11.430Z,67.91
2023-04-08T03:08:39.487Z,68.24
2023-04-08T03:11:07.514Z,67.91
2023-04-08T03:13:35.657Z,68.60
2023-04-08T03:16:05.479Z,68.58
2023-04-08T03:18:33.547Z,68.20
2023-04-08T03:21:03.174Z,68.15
2023-04-08T03:23:31.328Z,68.31
2023-04-08T03:25:59.381Z,68.40
2023-04-08T03:28:27.537Z,68.33
2023-04-08T03:30:55.788Z,68.09
2023-04-08T03:33:25.896Z,68.31
2023-04-08T03:35:55.267Z,67.89
2023-04-08T03:38:24.104Z,68.30
2023-04-08T03:40:52.115Z,68.44
2023-04-08T03:43:21.907Z,67.82
2023-04-08T03:45:50.059Z,67.75
2023-04-08T03:48:18.213Z,68.23
2023-04-08T03:50:47.558Z,68.01
2023-04-08T03:53:15.650Z,67.94
2023-04-08T03:55:43.628Z,67.63
2023-04-08T03:58:11.751Z,68.06
2023-04-08T04:00:39.894Z,67.77
2023-04-08T04:03:09.228Z,67.56
2023-04-08T04:05:37.838Z,67.65
2023-04-08T04:08:09.374Z,67.82
2023-04-08T04:10:37.645Z,67.32
2023-04-08T04:13:05.746Z,67.75
2023-04-08T04:15:33.893Z,68.04
2023-04-08T04:18:01.940Z,68.10
2023-04-08T04:20:30.743Z,68.45
2023-04-08T04:22:58.812Z,68.49
2023-04-08T04:25:28.159Z,68.27
2023-04-08T04:27:56.261Z,67.95
2023-04-08T04:30:24.929Z,68.69
2023-04-08T04:32:53.121Z,68.88
2023-04-08T04:35:21.302Z,69.13
2023-04-08T04:37:51.791Z,69.08
2023-04-08T04:40:20.228Z,68.87
2023-04-08T04:42:49.791Z,68.94
2023-04-08T04:45:17.978Z,68.61
2023-04-08T04:47:46.213Z,68.87
2023-04-08T04:50:14.238Z,68.77
2023-04-08T04:52:42.361Z,68.56
2023-04-08T04:55:11.710Z,68.43
2023-04-08T04:57:39.695Z,68.50
2023-04-08T05:00:11.180Z,68.96
2023-04-08T05:02:39.471Z,68.80
2023-04-08T05:05:08.545Z,69.13
2023-04-08T05:07:37.751Z,68.44
2023-04-08T05:10:06.924Z,68.80
2023-04-08T05:12:34.968Z,68.58
2023-04-08T05:15:03.252Z,68.37
2023-04-08T05:17:32.634Z,68.10
2023-04-08T05:20:00.821Z,68.23
2023-04-08T05:22:28.981Z,67.87
2023-04-08T05:24:57.118Z,67.89
2023-04-08T05:27:25.181Z,67.90
2023-04-08T05:29:53.325Z,68.17
2023-04-08T05:32:21.387Z,68.29
2023-04-08T05:34:50.911Z,68.57
2023-04-08T05:37:18.942Z,68.16
2023-04-08T05:39:47.015Z,68.46
2023-04-08T05:42:15.149Z,68.54
2023-04-08T05:44:43.950Z,68.51
2023-04-08T05:47:12.191Z,68.95
2023-04-08T05:49:40.316Z,69.03
2023-04-08T05:52:09.811Z,68.59
2023-04-08T05:54:37.970Z,68.98
2023-04-08T05:57:06.116Z,68.42
2023-04-08T05:59:34.210Z,68.92
2023-04-08T06:02:02.487Z,68.81
2023-04-08T06:04:31.008Z,69.13
2023-04-08T06:07:02.433Z,68.82
2023-04-08T06:09:31.815Z,68.79
2023-04-08T06:11:59.860Z,69.19
2023-04-08T06:14:27.977Z,69.14
2023-04-08T06:16:57.335Z,68.58
2023-04-08T06:19:25.740Z,68.88
2023-04-08T06:21:58.695Z,68.47
2023-04-08T06:24:27.756Z,68.57
2023-04-08T06:26:57.702Z,68.29
2023-04-08T06:29:25.744Z,68.11
2023-04-08T06:31:53.883Z,68.25
2023-04-08T06:34:21.872Z,68.69
2023-04-08T06:36:50.229Z,68.59
2023-04-08T06:39:19.385Z,68.34
2023-04-08T06:41:47.518Z,68.65
2023-04-08T06:44:30.877Z,68.39
2023-04-08T06:46:59.086Z,68.57
2023-04-08T06:49:27.920Z,68.27
2023-04-08T06:51:56.165Z,68.14
2023-04-08T06:54:24.336Z,68.31
2023-04-08T06:56:52.304Z,68.03
2023-04-08T06:59:20.368Z,68.00
2023-04-08T07:01:49.875Z,66.90
2023-04-08T07:04:18.140Z,67.08
2023-04-08T07:06:46.332Z,67.40
2023-04-08T07:09:14.320Z,67.37
2023-04-08T07:11:42.371Z,67.15
2023-04-08T07:14:10.546Z,67.64
2023-04-08T07:16:38.726Z,67.53
2023-04-08T07:19:08.311Z,66.95
2023-04-08T07:21:36.620Z,66.75
2023-04-08T07:24:05.061Z,67.49
2023-04-08T07:26:33.303Z,67.09
2023-04-08T07:29:01.411Z,67.79
2023-04-08T07:31:29.576Z,66.94
2023-04-08T07:33:57.916Z,67.23
2023-04-08T07:36:28.180Z,67.23
2023-04-08T07:38:56.320Z,67.64
2023-04-08T07:41:24.460Z,67.31
2023-04-08T07:43:52.568Z,67.32
2023-04-08T07:46:21.221Z,66.83
2023-04-08T07:48:49.584Z,67.42
2023-04-08T07:51:18.039Z,67.43
2023-04-08T07:53:50.343Z,67.52
2023-04-08T07:56:19.173Z,67.49
2023-04-08T07:58:48.741Z,67.02
2023-04-08T08:01:20.055Z,67.68
2023-04-08T08:03:48.953Z,66.95
2023-04-08T08:06:17.725Z,67.38
2023-04-08T08:08:45.896Z,67.04
2023-04-08T08:11:15.491Z,66.91
2023-04-08T08:13:43.677Z,66.87
2023-04-08T08:16:36.547Z,65.67
2023-04-08T08:19:28.961Z,65.94
2023-04-08T08:21:57.671Z,65.93
2023-04-08T08:24:25.928Z,66.51
2023-04-08T08:26:55.562Z,66.35
2023-04-08T08:29:23.808Z,66.26
2023-04-08T08:31:52.176Z,66.06
2023-04-08T08:34:20.345Z,65.80
2023-04-08T08:36:48.400Z,65.02
2023-04-08T08:39:16.506Z,65.27
2023-04-08T08:41:44.594Z,65.02
2023-04-08T08:44:14.494Z,64.73
2023-04-08T08:46:45.832Z,64.81
2023-04-08T08:49:14.066Z,65.40
2023-04-08T08:51:43.002Z,65.26
2023-04-08T08:54:11.290Z,64.53
2023-04-08T08:56:39.418Z,64.87
2023-04-08T08:59:07.908Z,63.98
2023-04-08T09:01:40.757Z,64.18
2023-04-08T09:04:16.907Z,64.85
2023-04-08T09:06:47.030Z,64.79
2023-04-08T09:09:15.466Z,63.85
2023-04-08T09:11:46.402Z,63.70
2023-04-08T09:14:22.544Z,63.30
2023-04-08T09:16:53.822Z,63.42
2023-04-08T09:19:22.063Z,62.25
2023-04-08T09:22:08.289Z,62.54
2023-04-08T09:24:38.014Z,62.35
2023-04-08T09:27:06.734Z,61.67
2023-04-08T09:29:38.137Z,60.99
2023-04-08T09:32:09.097Z,61.35
2023-04-08T09:34:37.552Z,60.16
2023-04-08T09:37:07.125Z,60.41
2023-04-08T09:39:35.830Z,60.84
2023-04-08T09:42:12.727Z,60.46
2023-04-08T09:44:42.831Z,58.43
2023-04-08T09:47:23.050Z,58.38
2023-04-08T09:49:56.771Z,58.21
2023-04-08T09:52:32.515Z,56.68
2023-04-08T09:55:04.847Z,56.75
2023-04-08T09:57:45.032Z,58.05
2023-04-08T10:00:16.180Z,55.12
2023-04-08T10:02:56.276Z,54.93
2023-04-08T10:05:26.068Z,55.34
2023-04-08T10:07:56.752Z,55.07
2023-04-08T10:10:26.143Z,55.75
2023-04-08T10:12:54.548Z,55.60
2023-04-08T10:15:27.487Z,56.13
2023-04-08T10:18:19.150Z,55.42
2023-04-08T10:20:49.055Z,55.34
2023-04-08T10:23:18.861Z,55.83
2023-04-08T10:25:47.724Z,57.14
2023-04-08T10:28:27.144Z,56.20
2023-04-08T10:30:57.461Z,55.71
2023-04-08T10:33:36.138Z,55.28
2023-04-08T10:36:15.322Z,55.89
2023-04-08T10:38:43.884Z,56.18
2023-04-08T10:41:14.025Z,56.04
2023-04-08T10:43:42.500Z,56.27
2023-04-08T10:46:12.460Z,55.75
2023-04-08T10:48:41.899Z,55.63
2023-04-08T10:51:09.990Z,56.15
2023-04-08T10:53:40.281Z,55.95
2023-04-08T10:56:12.817Z,55.74
2023-04-08T10:58:50.364Z,55.02
2023-04-08T11:01:19.735Z,54.92
2023-04-08T11:03:50.283Z,55.58
2023-04-08T11:06:19.446Z,54.94
2023-04-08T11:08:48.164Z,54.91
2023-04-08T11:11:16.336Z,54.96
2023-04-08T11:13:53.528Z,55.08
2023-04-08T11:16:23.484Z,54.12
2023-04-08T11:18:54.415Z,53.77
2023-04-08T11:21:27.159Z,53.40
2023-04-08T11:23:55.839Z,53.46
2023-04-08T11:26:24.500Z,54.20
2023-04-08T11:28:53.115Z,53.35
2023-04-08T11:31:24.829Z,52.88
2023-04-08T11:33:56.747Z,52.84
2023-04-08T11:36:25.955Z,52.63
2023-04-08T11:38:56.208Z,51.84
2023-04-08T11:41:24.233Z,51.75
2023-04-08T11:43:57.526Z,51.02
2023-04-08T11:46:25.964Z,50.89
2023-04-08T11:49:04.579Z,50.84
2023-04-08T11:51:34.433Z,50.57
2023-04-08T11:54:05.303Z,51.30
2023-04-08T11:56:45.703Z,51.17
2023-04-08T11:59:13.705Z,51.13
2023-04-08T12:01:43.213Z,51.54
2023-04-08T12:04:13.180Z,51.28
2023-04-08T12:06:43.492Z,51.47
2023-04-08T12:09:11.585Z,52.11
2023-04-08T12:11:39.861Z,52.47
2023-04-08T12:14:07.923Z,52.55
2023-04-08T12:16:36.295Z,52.78
2023-04-08T12:19:04.586Z,52.97
2023-04-08T12:21:34.545Z,52.72
2023-04-08T12:24:02.646Z,52.61
2023-04-08T12:26:30.752Z,52.90
2023-04-08T12:28:58.741Z,53.15
2023-04-08T12:31:27.753Z,53.04
2023-04-08T12:33:55.895Z,52.87
2023-04-08T12:36:23.996Z,53.54
2023-04-08T12:38:53.461Z,53.27
2023-04-08T12:41:21.713Z,53.28
2023-04-08T12:43:49.800Z,53.60
2023-04-08T12:46:17.819Z,53.22
2023-04-08T12:48:47.463Z,53.39
2023-04-08T12:51:15.681Z,53.86
2023-04-08T12:53:43.645Z,52.94
2023-04-08T12:56:13.111Z,53.20
2023-04-08T12:58:41.326Z,53.46
2023-04-08T13:01:09.431Z,53.36
2023-04-08T13:03:37.574Z,54.08
2023-04-08T13:06:05.922Z,53.87
2023-04-08T13:08:33.924Z,53.92
2023-04-08T13:11:02.051Z,54.07
2023-04-08T13:13:31.439Z,54.03
2023-04-08T13:15:59.531Z,54.13
2023-04-08T13:18:27.704Z,53.65
2023-04-08T13:20:55.776Z,53.57
2023-04-08T13:23:23.778Z,53.64
2023-04-08T13:25:51.927Z,54.01
2023-04-08T13:28:20.243Z,53.15
2023-04-08T13:30:49.802Z,52.52
2023-04-08T13:33:18.203Z,53.28
2023-04-08T13:35:46.301Z,53.50
2023-04-08T13:38:14.313Z,53.88
2023-04-08T13:40:42.473Z,53.93
2023-04-08T13:43:10.463Z,53.06
2023-04-08T13:45:38.791Z,53.49
2023-04-08T13:48:08.644Z,53.93
2023-04-08T13:50:36.821Z,54.19
2023-04-08T13:53:04.825Z,53.40
2023-04-08T13:55:32.917Z,53.66
2023-04-08T13:58:01.589Z,53.15
2023-04-08T14:00:31.202Z,52.99
2023-04-08T14:02:59.717Z,53.49
2023-04-08T14:05:29.103Z,53.51
2023-04-08T14:07:57.171Z,53.86
2023-04-08T14:10:25.353Z,53.57
2023-04-08T14:12:54.276Z,53.81
2023-04-08T14:15:22.352Z,53.67
2023-04-08T14:17:50.434Z,53.33
2023-04-08T14:20:18.538Z,53.69
2023-04-08T14:22:47.975Z,53.66
2023-04-08T14:25:16.325Z,53.76
2023-04-08T14:27:57.192Z,52.88
2023-04-08T14:30:27.644Z,53.57
2023-04-08T14:32:55.921Z,52.57
2023-04-08T14:35:24.150Z,52.67
2023-04-08T14:37:53.610Z,53.43
2023-04-08T14:40:21.928Z,53.84
2023-04-08T14:42:50.683Z,53.95
2023-04-08T14:45:18.982Z,52.86
2023-04-08T14:47:47.081Z,53.47
2023-04-08T14:50:16.025Z,52.53
2023-04-08T14:52:45.372Z,52.52
2023-04-08T14:55:15.516Z,52.13
2023-04-08T14:57:43.641Z,51.59
2023-04-08T15:00:13.504Z,52.01
2023-04-08T15:02:41.953Z,52.07
2023-04-08T15:05:11.472Z,51.48
2023-04-08T15:07:39.545Z,51.60
2023-04-08T15:10:09.217Z,52.52
2023-04-08T15:12:38.693Z,52.62
2023-04-08T15:15:08.586Z,53.25
2023-04-08T15:17:36.626Z,52.93
2023-04-08T15:20:05.800Z,51.95
2023-04-08T15:22:33.899Z,52.74
2023-04-08T15:25:02.188Z,53.05
2023-04-08T15:27:30.612Z,52.88
2023-04-08T15:30:00.329Z,52.76
2023-04-08T15:32:28.368Z,53.59
2023-04-08T15:34:56.482Z,53.75
2023-04-08T15:37:24.894Z,53.39
2023-04-08T15:39:53.708Z,53.39
2023-04-08T15:42:22.029Z,53.35
2023-04-08T15:44:50.397Z,53.98
2023-04-08T15:47:20.078Z,53.08
2023-04-08T15:49:48.778Z,53.28
2023-04-08T15:52:17.447Z,52.38
2023-04-08T15:54:46.117Z,52.24
2023-04-08T15:57:16.263Z,51.62
2023-04-08T15:59:44.658Z,51.63
2023-04-08T16:02:13.024Z,51.31
2023-04-08T16:04:42.766Z,51.46
2023-04-08T16:07:11.048Z,51.41
2023-04-08T16:09:39.300Z,50.82
2023-04-08T16:12:07.471Z,50.24
2023-04-08T16:14:35.717Z,50.30
2023-04-08T16:17:03.935Z,50.46
2023-04-08T16:19:32.300Z,50.08
2023-04-08T16:22:01.617Z,50.59
2023-04-08T16:24:29.657Z,51.36
2023-04-08T16:26:57.722Z,51.53
2023-04-08T16:29:26.116Z,51.15
2023-04-08T16:31:55.167Z,50.75
2023-04-08T16:34:23.457Z,50.62
2023-04-08T16:36:51.877Z,50.97
2023-04-08T16:39:21.340Z,51.42
2023-04-08T16:41:49.368Z,50.95
2023-04-08T16:44:17.495Z,51.44
2023-04-08T16:46:45.548Z,51.77
2023-04-08T16:49:15.560Z,52.07
2023-04-08T16:51:44.893Z,52.90
2023-04-08T16:54:12.844Z,52.37
2023-04-08T16:56:45.457Z,53.07
2023-04-08T17:03:36.377Z,53.77
2023-04-08T17:06:09.978Z,53.86
2023-04-08T17:08:38.878Z,53.97
2023-04-08T17:11:10.969Z,54.13
2023-04-08T17:13:43.656Z,54.16
2023-04-08T17:16:14.393Z,53.55
2023-04-08T17:18:43.382Z,54.40
2023-04-08T17:21:13.986Z,55.06
2023-04-08T17:23:59.286Z,54.61
2023-04-08T17:26:28.251Z,55.31
2023-04-08T17:28:59.441Z,54.84
2023-04-08T17:31:28.455Z,55.41
2023-04-08T17:33:57.371Z,55.62
2023-04-08T17:36:26.495Z,56.44
2023-04-08T17:38:56.482Z,57.19
2023-04-08T17:41:39.064Z,57.33
2023-04-08T17:44:12.586Z,56.14
2023-04-08T17:46:41.713Z,56.46
2023-04-08T17:49:12.808Z,56.31
2023-04-08T17:51:43.878Z,56.44
2023-04-08T17:54:14.505Z,55.78
2023-04-08T17:56:44.909Z,55.38
2023-04-08T17:59:16.069Z,55.15
2023-04-08T18:01:45.383Z,55.88
2023-04-08T18:04:18.778Z,55.69
2023-04-08T18:06:48.699Z,56.03
2023-04-08T18:09:17.500Z,56.64
2023-04-08T18:11:47.319Z,56.77
2023-04-08T18:14:17.826Z,56.47
2023-04-08T18:16:46.942Z,56.58
2023-04-08T18:19:15.654Z,57.34
2023-04-08T18:21:46.029Z,57.54
2023-04-08T18:24:14.894Z,57.36
2023-04-08T18:26:43.953Z,57.96
2023-04-08T18:29:14.417Z,57.63
2023-04-08T18:31:45.241Z,58.54
2023-04-08T18:34:14.105Z,57.97
2023-04-08T18:36:43.038Z,57.83
2023-04-08T18:39:12.692Z,57.51
2023-04-08T18:41:41.077Z,58.53
2023-04-08T18:44:10.991Z,58.47
2023-04-08T18:46:52.750Z,58.07
2023-04-08T18:49:21.200Z,57.93
2023-04-08T18:52:01.319Z,58.64
2023-04-08T18:54:32.989Z,58.29
2023-04-08T18:57:01.618Z,58.47
2023-04-08T18:59:33.287Z,58.22
2023-04-08T19:02:03.382Z,58.35
2023-04-08T19:04:33.405Z,57.74
2023-04-08T19:07:03.660Z,57.73
2023-04-08T19:09:32.617Z,57.87
2023-04-08T19:12:02.264Z,58.07
2023-04-08T19:14:34.376Z,58.81
2023-04-08T19:17:04.874Z,58.59
2023-04-08T19:19:33.259Z,58.90
2023-04-08T19:22:05.942Z,58.36
2023-04-08T19:24:34.943Z,58.20
2023-04-08T19:27:04.233Z,58.73
2023-04-08T19:29:35.420Z,58.22
2023-04-08T19:32:06.127Z,58.46
2023-04-08T19:34:39.698Z,58.94
2023-04-08T19:37:08.631Z,58.54
2023-04-08T19:39:37.572Z,58.62
2023-04-08T19:42:06.763Z,58.58
2023-04-08T19:44:36.169Z,58.50
2023-04-08T19:47:06.909Z,58.71
2023-04-08T19:49:35.797Z,58.63
2023-04-08T19:52:05.169Z,58.71
2023-04-08T19:54:34.725Z,58.68
2023-04-08T19:57:05.629Z,58.96
2023-04-08T19:59:37.080Z,58.73
2023-04-08T20:02:08.100Z,58.51
2023-04-08T20:04:36.763Z,58.89
2023-04-08T20:07:05.737Z,59.06
2023-04-08T20:09:36.932Z,59.50
2023-04-08T20:12:06.596Z,59.83
2023-04-08T20:14:40.623Z,59.74
2023-04-08T20:17:11.657Z,60.13
2023-04-08T20:19:40.546Z,60.24
2023-04-08T20:22:09.419Z,60.97
2023-04-08T20:24:38.961Z,60.08
2023-04-08T20:27:07.190Z,60.10
2023-04-08T20:29:36.003Z,60.26
2023-04-08T20:32:05.865Z,60.66
2023-04-08T20:34:36.689Z,60.68
2023-04-08T20:37:05.346Z,59.97
2023-04-08T20:39:35.398Z,60.60
2023-04-08T20:42:06.650Z,60.46
2023-04-08T20:44:35.506Z,60.47
2023-04-08T20:47:04.317Z,60.13
2023-04-08T20:49:35.050Z,60.51
2023-04-08T20:52:05.928Z,60.17
2023-04-08T20:54:34.715Z,60.60
2023-04-08T20:57:05.401Z,60.66
2023-04-08T20:59:35.487Z,60.76
2023-04-08T21:02:04.295Z,60.42
2023-04-08T21:04:33.391Z,60.42
2023-04-08T21:07:02.343Z,60.16
2023-04-08T21:09:32.848Z,60.05
2023-04-08T21:12:01.763Z,60.12
2023-04-08T21:14:32.231Z,59.61
2023-04-08T21:17:00.987Z,59.52
2023-04-08T21:19:29.682Z,60.18
2023-04-08T21:21:58.378Z,60.69
2023-04-08T21:24:27.188Z,60.41
2023-04-08T21:26:59.444Z,60.88
2023-04-08T21:29:27.825Z,60.77
2023-04-08T21:31:56.776Z,61.68
2023-04-08T21:34:25.809Z,61.96
2023-04-08T21:36:54.735Z,61.55
2023-04-08T21:39:24.325Z,62.00
2023-04-08T21:41:53.048Z,62.23
2023-04-08T21:44:23.709Z,62.40
2023-04-08T21:46:52.139Z,62.70
2023-04-08T21:49:20.595Z,62.73
2023-04-08T21:51:53.370Z,62.64
2023-04-08T21:54:31.255Z,62.13
2023-04-08T21:57:01.456Z,62.23
2023-04-08T21:59:32.013Z,61.78
2023-04-08T22:02:08.284Z,62.17
2023-04-08T22:04:38.886Z,61.97
2023-04-08T22:07:07.587Z,61.93
2023-04-08T22:09:36.544Z,62.54
2023-04-08T22:12:05.587Z,61.99
2023-04-08T22:14:35.938Z,61.66
2023-04-08T22:17:05.337Z,62.05
2023-04-08T22:19:34.100Z,61.79
2023-04-08T22:22:02.918Z,61.31
2023-04-08T22:24:31.377Z,61.46
2023-04-08T22:26:59.931Z,61.53
2023-04-08T22:29:28.270Z,61.74
2023-04-08T22:31:57.999Z,61.54
2023-04-08T22:34:26.648Z,61.55
2023-04-08T22:36:55.386Z,61.54
2023-04-08T22:39:26.265Z,61.81
2023-04-08T22:41:55.184Z,61.81
2023-04-08T22:44:23.667Z,61.99
2023-04-08T22:46:52.484Z,61.96
2023-04-08T22:49:22.468Z,61.39
2023-04-08T22:51:51.557Z,62.01
2023-04-08T22:54:20.849Z,62.11
2023-04-08T22:56:53.807Z,62.31
2023-04-08T22:59:26.817Z,61.71
2023-04-08T23:01:56.563Z,61.91
2023-04-08T23:04:27.080Z,61.59
2023-04-08T23:06:58.251Z,61.32
2023-04-08T23:09:28.560Z,61.42
2023-04-08T23:12:21.674Z,61.46
2023-04-08T23:14:50.058Z,61.30
2023-04-08T23:17:18.953Z,61.33
2023-04-08T23:19:49.190Z,60.94
2023-04-08T23:22:20.277Z,60.57
2023-04-08T23:24:48.769Z,61.24
2023-04-08T23:27:17.344Z,61.54
2023-04-08T23:29:46.131Z,61.64
2023-04-08T23:32:14.597Z,61.41
2023-04-08T23:34:43.057Z,61.78
2023-04-08T23:37:13.385Z,61.68
2023-04-08T23:39:42.696Z,61.82
2023-04-08T23:42:11.736Z,61.96
2023-04-08T23:44:40.142Z,61.80
2023-04-08T23:47:08.979Z,62.32
2023-04-08T23:49:37.644Z,62.53
2023-04-08T23:52:06.979Z,62.81
2023-04-08T23:54:37.399Z,62.59
2023-04-08T23:57:06.118Z,62.70
2023-04-08T23:59:36.004Z,62.82
